createdAt,value
2023-03-11T00:00:48.453Z,982.28
2023-03-11T00:01:48.455Z,982.30
2023-03-11T00:02:48.400Z,982.31
2023-03-11T00:03:48.413Z,982.33
2023-03-11T00:04:48.404Z,982.33
2023-03-11T00:05:48.388Z,982.41
2023-03-11T00:06:48.405Z,982.37
2023-03-11T00:07:48.357Z,982.42
2023-03-11T00:08:48.349Z,982.45
2023-03-11T00:09:48.353Z,982.46
2023-03-11T00:10:48.367Z,982.48
2023-03-11T00:11:48.341Z,982.50
2023-03-11T00:12:48.401Z,982.53
2023-03-11T00:13:48.329Z,982.54
2023-03-11T00:14:48.317Z,982.56
2023-03-11T00:15:48.315Z,982.59
2023-03-11T00:16:48.328Z,982.61
2023-03-11T00:17:48.328Z,982.63
2023-03-11T00:18:48.329Z,982.66
2023-03-11T00:19:48.272Z,982.65
2023-03-11T00:20:48.281Z,982.70
2023-03-11T00:21:48.289Z,982.69
2023-03-11T00:22:48.290Z,982.71
2023-03-11T00:23:48.260Z,982.71
2023-03-11T00:24:48.325Z,982.71
2023-03-11T00:25:48.271Z,982.75
2023-03-11T00:26:48.230Z,982.78
2023-03-11T00:27:48.236Z,982.81
2023-03-11T00:28:48.231Z,982.83
2023-03-11T00:29:48.217Z,982.85
2023-03-11T00:30:48.280Z,982.87
2023-03-11T00:31:48.226Z,982.90
2023-03-11T00:32:48.261Z,982.92
2023-03-11T00:33:48.174Z,982.94
2023-03-11T00:34:48.185Z,982.95
2023-03-11T00:35:48.234Z,982.98
2023-03-11T00:36:48.673Z,982.99
2023-03-11T00:37:48.160Z,983.01
2023-03-11T00:38:48.214Z,983.04
2023-03-11T00:39:48.147Z,983.05
2023-03-11T00:40:48.127Z,983.04
2023-03-11T00:41:48.132Z,983.04
2023-03-11T00:42:48.153Z,983.05
2023-03-11T00:43:48.145Z,983.04
2023-03-11T00:44:48.117Z,983.07
2023-03-11T00:45:48.282Z,983.07
2023-03-11T00:46:48.103Z,983.08
2023-03-11T00:48:01.120Z,983.08
2023-03-11T00:48:48.134Z,983.07
2023-03-11T00:49:48.074Z,983.05
2023-03-11T00:50:48.074Z,983.07
2023-03-11T00:51:48.068Z,983.08
2023-03-11T00:52:48.060Z,983.08
2023-03-11T00:53:48.051Z,983.05
2023-03-11T00:54:48.061Z,983.05
2023-03-11T00:55:48.029Z,983.05
2023-03-11T00:56:48.023Z,983.08
2023-03-11T00:57:48.031Z,983.11
2023-03-11T00:58:47.997Z,983.12
2023-03-11T00:59:48.006Z,983.12
2023-03-11T01:00:48.069Z,983.12
2023-03-11T01:01:48.011Z,983.10
2023-03-11T01:02:47.970Z,983.11
2023-03-11T01:04:19.503Z,983.15
2023-03-11T01:04:47.980Z,983.16
2023-03-11T01:05:47.973Z,983.17
2023-03-11T01:06:48.030Z,983.19
2023-03-11T01:07:47.928Z,983.19
2023-03-11T01:08:47.943Z,983.21
2023-03-11T01:09:47.912Z,983.25
2023-03-11T01:10:47.912Z,983.29
2023-03-11T01:11:47.932Z,983.33
2023-03-11T01:12:47.947Z,983.36
2023-03-11T01:13:47.910Z,983.37
2023-03-11T01:14:47.920Z,983.39
2023-03-11T01:15:47.883Z,983.41
2023-03-11T01:16:47.873Z,983.42
2023-03-11T01:17:47.884Z,983.43
2023-03-11T01:18:47.958Z,983.46
2023-03-11T01:19:47.878Z,983.47
2023-03-11T01:20:47.861Z,983.49
2023-03-11T01:21:47.872Z,983.50
2023-03-11T01:22:47.907Z,983.52
2023-03-11T01:23:47.855Z,983.53
2023-03-11T01:24:47.980Z,983.55
2023-03-11T01:25:47.829Z,983.55
2023-03-11T01:26:47.839Z,983.57
2023-03-11T01:27:47.845Z,983.59
2023-03-11T01:28:47.811Z,983.61
2023-03-11T01:29:47.918Z,983.62
2023-03-11T01:30:47.941Z,983.61
2023-03-11T01:31:47.821Z,983.61
2023-03-11T01:32:47.837Z,983.61
2023-03-11T01:33:47.799Z,983.62
2023-03-11T01:34:47.803Z,983.63
2023-03-11T01:35:47.798Z,983.65
2023-03-11T01:36:47.809Z,983.64
2023-03-11T01:37:47.752Z,983.65
2023-03-11T01:38:47.915Z,983.64
2023-03-11T01:39:47.781Z,983.62
2023-03-11T01:40:47.813Z,983.63
2023-03-11T01:41:47.784Z,983.65
2023-03-11T01:42:48.198Z,983.64
2023-03-11T01:43:47.694Z,983.63
2023-03-11T01:44:47.757Z,983.64
2023-03-11T01:45:47.703Z,983.61
2023-03-11T01:46:47.805Z,983.60
2023-03-11T01:47:47.700Z,983.63
2023-03-11T01:48:47.749Z,983.63
2023-03-11T01:49:47.689Z,983.63
2023-03-11T01:50:47.663Z,983.64
2023-03-11T01:51:47.677Z,983.65
2023-03-11T01:52:47.641Z,983.64
2023-03-11T01:53:47.628Z,983.63
2023-03-11T01:54:48.723Z,983.64
2023-03-11T01:55:47.608Z,983.66
2023-03-11T01:56:47.607Z,983.68
2023-03-11T01:57:47.579Z,983.69
2023-03-11T01:58:47.607Z,983.70
2023-03-11T01:59:47.601Z,983.72
2023-03-11T02:00:47.619Z,983.72
2023-03-11T02:01:47.649Z,983.71
2023-03-11T02:02:47.618Z,983.73
2023-03-11T02:03:47.553Z,983.77
2023-03-11T02:04:47.558Z,983.79
2023-03-11T02:05:47.581Z,983.79
2023-03-11T02:06:47.612Z,983.81
2023-03-11T02:07:47.565Z,983.83
2023-03-11T02:08:47.552Z,983.84
2023-03-11T02:09:47.510Z,983.86
2023-03-11T02:10:47.538Z,983.85
2023-03-11T02:11:47.490Z,983.86
2023-03-11T02:12:47.552Z,983.87
2023-03-11T02:13:47.494Z,983.86
2023-03-11T02:14:47.498Z,983.85
2023-03-11T02:15:47.563Z,983.88
2023-03-11T02:16:47.474Z,983.89
2023-03-11T02:17:47.480Z,983.92
2023-03-11T02:18:47.501Z,983.92
2023-03-11T02:19:47.454Z,983.92
2023-03-11T02:20:47.473Z,983.94
2023-03-11T02:21:47.463Z,983.95
2023-03-11T02:22:47.444Z,983.96
2023-03-11T02:23:47.474Z,983.96
2023-03-11T02:24:47.491Z,983.97
2023-03-11T02:25:47.459Z,983.97
2023-03-11T02:26:47.455Z,983.98
2023-03-11T02:27:47.418Z,984.00
2023-03-11T02:28:47.390Z,984.03
2023-03-11T02:29:47.415Z,984.06
2023-03-11T02:30:47.468Z,984.09
2023-03-11T02:31:47.421Z,984.11
2023-03-11T02:32:47.398Z,984.12
2023-03-11T02:33:47.354Z,984.12
2023-03-11T02:34:47.373Z,984.11
2023-03-11T02:35:47.386Z,984.11
2023-03-11T02:36:47.399Z,984.11
2023-03-11T02:37:47.334Z,984.14
2023-03-11T02:38:47.310Z,984.14
2023-03-11T02:39:47.360Z,984.16
2023-03-11T02:40:47.349Z,984.16
2023-03-11T02:41:47.335Z,984.17
2023-03-11T02:42:47.356Z,984.22
2023-03-11T02:43:47.315Z,984.26
2023-03-11T02:44:47.314Z,984.29
2023-03-11T02:45:47.283Z,984.32
2023-03-11T02:46:47.330Z,984.32
2023-03-11T02:47:47.251Z,984.33
2023-03-11T02:48:47.540Z,984.33
2023-03-11T02:49:47.261Z,984.35
2023-03-11T02:50:47.233Z,984.37
2023-03-11T02:51:47.237Z,984.38
2023-03-11T02:52:47.272Z,984.40
2023-03-11T02:53:47.208Z,984.42
2023-03-11T02:54:47.254Z,984.42
2023-03-11T02:55:47.221Z,984.42
2023-03-11T02:56:47.198Z,984.47
2023-03-11T02:57:47.202Z,984.50
2023-03-11T02:58:47.197Z,984.50
2023-03-11T02:59:47.210Z,984.53
2023-03-11T03:00:47.233Z,984.57
2023-03-11T03:01:47.142Z,984.58
2023-03-11T03:02:47.215Z,984.57
2023-03-11T03:03:47.171Z,984.60
2023-03-11T03:04:47.143Z,984.60
2023-03-11T03:05:47.142Z,984.61
2023-03-11T03:06:47.161Z,984.63
2023-03-11T03:07:47.128Z,984.65
2023-03-11T03:08:47.110Z,984.66
2023-03-11T03:09:47.098Z,984.67
2023-03-11T03:10:47.098Z,984.68
2023-03-11T03:11:47.103Z,984.68
2023-03-11T03:12:47.134Z,984.69
2023-03-11T03:13:47.099Z,984.72
2023-03-11T03:14:47.050Z,984.74
2023-03-11T03:15:47.044Z,984.75
2023-03-11T03:16:47.177Z,984.75
2023-03-11T03:17:47.067Z,984.81
2023-03-11T03:18:47.101Z,984.83
2023-03-11T03:19:47.076Z,984.87
2023-03-11T03:20:47.029Z,984.87
2023-03-11T03:21:47.027Z,984.88
2023-03-11T03:22:46.990Z,984.91
2023-03-11T03:23:47.013Z,984.94
2023-03-11T03:24:47.043Z,984.95
2023-03-11T03:25:46.991Z,984.96
2023-03-11T03:26:46.980Z,984.97
2023-03-11T03:27:46.992Z,984.99
2023-03-11T03:28:46.981Z,985.01
2023-03-11T03:29:46.966Z,985.03
2023-03-11T03:30:47.051Z,985.07
2023-03-11T03:31:46.960Z,985.08
2023-03-11T03:32:47.017Z,985.11
2023-03-11T03:33:46.929Z,985.12
2023-03-11T03:34:46.945Z,985.15
2023-03-11T03:35:46.981Z,985.19
2023-03-11T03:36:46.996Z,985.21
2023-03-11T03:37:46.895Z,985.20
2023-03-11T03:38:46.902Z,985.19
2023-03-11T03:39:46.867Z,985.22
2023-03-11T03:40:46.877Z,985.26
2023-03-11T03:41:46.869Z,985.26
2023-03-11T03:42:46.901Z,985.26
2023-03-11T03:43:46.855Z,985.27
2023-03-11T03:44:46.858Z,985.29
2023-03-11T03:45:46.878Z,985.32
2023-03-11T03:46:46.836Z,985.35
2023-03-11T03:47:46.817Z,985.37
2023-03-11T03:48:46.892Z,985.40
2023-03-11T03:49:46.819Z,985.39
2023-03-11T03:50:46.810Z,985.38
2023-03-11T03:51:46.781Z,985.40
2023-03-11T03:52:46.793Z,985.44
2023-03-11T03:53:46.780Z,985.43
2023-03-11T03:54:47.095Z,985.48
2023-03-11T03:55:46.783Z,985.51
2023-03-11T03:56:46.763Z,985.51
2023-03-11T03:57:46.769Z,985.51
2023-03-11T03:58:46.749Z,985.53
2023-03-11T03:59:46.741Z,985.47
2023-03-11T04:00:46.784Z,985.51
2023-03-11T04:01:46.704Z,985.52
2023-03-11T04:02:46.731Z,985.51
2023-03-11T04:03:46.761Z,985.54
2023-03-11T04:04:46.697Z,985.50
2023-03-11T04:05:46.702Z,985.52
2023-03-11T04:06:46.708Z,985.52
2023-03-11T04:07:46.690Z,985.49
2023-03-11T04:08:46.680Z,985.51
2023-03-11T04:09:46.646Z,985.51
2023-03-11T04:10:46.666Z,985.52
2023-03-11T04:11:46.642Z,985.53
2023-03-11T04:12:46.694Z,985.52
2023-03-11T04:13:46.630Z,985.54
2023-03-11T04:14:46.621Z,985.53
2023-03-11T04:15:46.615Z,985.57
2023-03-11T04:16:46.639Z,985.57
2023-03-11T04:17:46.625Z,985.57
2023-03-11T04:18:46.643Z,985.58
2023-03-11T04:19:46.592Z,985.58
2023-03-11T04:20:46.601Z,985.60
2023-03-11T04:21:46.583Z,985.61
2023-03-11T04:22:46.574Z,985.64
2023-03-11T04:23:46.564Z,985.66
2023-03-11T04:24:46.593Z,985.67
2023-03-11T04:25:46.541Z,985.69
2023-03-11T04:26:46.534Z,985.69
2023-03-11T04:27:46.541Z,985.70
2023-03-11T04:28:46.517Z,985.72
2023-03-11T04:29:46.577Z,985.74
2023-03-11T04:30:46.567Z,985.74
2023-03-11T04:31:46.531Z,985.75
2023-03-11T04:32:46.528Z,985.76
2023-03-11T04:33:46.460Z,985.74
2023-03-11T04:34:46.494Z,985.74
2023-03-11T04:35:46.557Z,985.74
2023-03-11T04:36:46.537Z,985.75
2023-03-11T04:37:46.454Z,985.76
2023-03-11T04:38:46.436Z,985.77
2023-03-11T04:39:46.455Z,985.75
2023-03-11T04:40:46.434Z,985.74
2023-03-11T04:41:46.423Z,985.75
2023-03-11T04:42:46.497Z,985.77
2023-03-11T04:43:46.407Z,985.78
2023-03-11T04:44:46.421Z,985.78
2023-03-11T04:45:46.430Z,985.79
2023-03-11T04:46:46.410Z,985.82
2023-03-11T04:47:46.409Z,985.83
2023-03-11T04:48:46.504Z,985.87
2023-03-11T04:49:46.415Z,985.90
2023-03-11T04:50:46.370Z,985.90
2023-03-11T04:51:46.372Z,985.91
2023-03-11T04:52:46.414Z,985.92
2023-03-11T04:53:46.340Z,985.92
2023-03-11T04:54:46.768Z,985.94
2023-03-11T04:55:46.348Z,985.96
2023-03-11T04:56:46.313Z,985.96
2023-03-11T04:57:46.310Z,985.97
2023-03-11T04:58:46.341Z,985.94
2023-03-11T04:59:46.345Z,985.97
2023-03-11T05:00:46.387Z,985.95
2023-03-11T05:01:46.362Z,985.92
2023-03-11T05:02:46.294Z,985.95
2023-03-11T05:03:46.276Z,985.95
2023-03-11T05:04:46.325Z,985.96
2023-03-11T05:05:46.265Z,985.96
2023-03-11T05:06:46.300Z,985.99
2023-03-11T05:07:46.233Z,986.02
2023-03-11T05:08:46.255Z,986.04
2023-03-11T05:09:46.260Z,986.06
2023-03-11T05:10:46.238Z,986.06
2023-03-11T05:11:46.267Z,986.09
2023-03-11T05:12:46.265Z,986.07
2023-03-11T05:13:46.233Z,986.09
2023-03-11T05:14:46.271Z,986.12
2023-03-11T05:15:46.255Z,986.09
2023-03-11T05:16:46.225Z,986.11
2023-03-11T05:17:46.200Z,986.12
2023-03-11T05:18:46.231Z,986.12
2023-03-11T05:19:46.183Z,986.13
2023-03-11T05:20:46.173Z,986.15
2023-03-11T05:21:46.124Z,986.18
2023-03-11T05:22:46.165Z,986.19
2023-03-11T05:23:46.180Z,986.21
2023-03-11T05:24:46.187Z,986.21
2023-03-11T05:25:46.107Z,986.23
2023-03-11T05:26:48.485Z,986.24
2023-03-11T05:27:46.187Z,986.23
2023-03-11T05:28:46.129Z,986.24
2023-03-11T05:29:46.119Z,986.25
2023-03-11T05:30:46.133Z,986.26
2023-03-11T05:31:46.091Z,986.30
2023-03-11T05:32:46.194Z,986.32
2023-03-11T05:33:46.054Z,986.32
2023-03-11T05:34:46.070Z,986.31
2023-03-11T05:35:46.136Z,986.29
2023-03-11T05:36:46.135Z,986.30
2023-03-11T05:37:46.062Z,986.31
2023-03-11T05:38:46.065Z,986.30
2023-03-11T05:39:46.033Z,986.26
2023-03-11T05:40:46.027Z,986.27
2023-03-11T05:41:46.027Z,986.27
2023-03-11T05:42:46.068Z,986.26
2023-03-11T05:43:45.993Z,986.27
2023-03-11T05:44:45.984Z,986.25
2023-03-11T05:45:45.994Z,986.27
2023-03-11T05:46:46.025Z,986.30
2023-03-11T05:47:45.969Z,986.38
2023-03-11T05:48:46.033Z,986.40
2023-03-11T05:49:45.991Z,986.42
2023-03-11T05:50:45.958Z,986.43
2023-03-11T05:51:45.928Z,986.44
2023-03-11T05:52:45.956Z,986.46
2023-03-11T05:53:45.921Z,986.48
2023-03-11T05:54:45.961Z,986.50
2023-03-11T05:55:45.919Z,986.51
2023-03-11T05:56:45.938Z,986.52
2023-03-11T05:57:45.921Z,986.54
2023-03-11T05:58:45.900Z,986.55
2023-03-11T05:59:45.915Z,986.56
2023-03-11T06:00:46.376Z,986.56
2023-03-11T06:01:45.917Z,986.55
2023-03-11T06:02:45.852Z,986.52
2023-03-11T06:03:45.935Z,986.51
2023-03-11T06:04:45.989Z,986.51
2023-03-11T06:05:45.852Z,986.49
2023-03-11T06:06:45.891Z,986.49
2023-03-11T06:07:45.843Z,986.49
2023-03-11T06:08:45.812Z,986.50
2023-03-11T06:09:45.826Z,986.50
2023-03-11T06:10:48.800Z,986.51
2023-03-11T06:11:45.853Z,986.51
2023-03-11T06:12:45.887Z,986.54
2023-03-11T06:13:45.771Z,986.56
2023-03-11T06:14:45.804Z,986.57
2023-03-11T06:15:45.766Z,986.58
2023-03-11T06:16:45.757Z,986.59
2023-03-11T06:17:45.777Z,986.63
2023-03-11T06:18:45.802Z,986.64
2023-03-11T06:19:45.739Z,986.67
2023-03-11T06:20:45.743Z,986.67
2023-03-11T06:21:45.702Z,986.66
2023-03-11T06:22:45.741Z,986.68
2023-03-11T06:23:45.739Z,986.70
2023-03-11T06:24:45.753Z,986.71
2023-03-11T06:25:45.712Z,986.71
2023-03-11T06:26:45.677Z,986.74
2023-03-11T06:27:45.680Z,986.75
2023-03-11T06:28:45.690Z,986.76
2023-03-11T06:29:48.286Z,986.78
2023-03-11T06:30:45.696Z,986.80
2023-03-11T06:31:45.727Z,986.82
2023-03-11T06:32:45.671Z,986.83
2023-03-11T06:33:45.635Z,986.85
2023-03-11T06:34:45.621Z,986.87
2023-03-11T06:35:45.626Z,986.89
2023-03-11T06:36:45.661Z,986.91
2023-03-11T06:37:45.606Z,986.93
2023-03-11T06:38:45.601Z,986.96
2023-03-11T06:39:45.616Z,986.99
2023-03-11T06:40:45.602Z,987.01
2023-03-11T06:41:45.577Z,987.02
2023-03-11T06:42:45.627Z,987.02
2023-03-11T06:43:45.555Z,987.04
2023-03-11T06:44:45.620Z,987.06
2023-03-11T06:45:45.586Z,987.08
2023-03-11T06:46:45.558Z,987.08
2023-03-11T06:47:45.532Z,987.09
2023-03-11T06:48:45.588Z,987.10
2023-03-11T06:49:45.530Z,987.13
2023-03-11T06:50:47.655Z,987.16
2023-03-11T06:51:45.533Z,987.18
2023-03-11T06:52:45.491Z,987.19
2023-03-11T06:53:45.498Z,987.20
2023-03-11T06:54:45.538Z,987.21
2023-03-11T06:55:45.491Z,987.23
2023-03-11T06:56:45.461Z,987.25
2023-03-11T06:57:45.464Z,987.26
2023-03-11T06:58:45.461Z,987.29
2023-03-11T06:59:45.461Z,987.32
2023-03-11T07:00:45.550Z,987.35
2023-03-11T07:01:45.451Z,987.36
2023-03-11T07:02:45.420Z,987.37
2023-03-11T07:03:45.438Z,987.38
2023-03-11T07:04:45.402Z,987.38
2023-03-11T07:05:45.399Z,987.40
2023-03-11T07:06:45.915Z,987.43
2023-03-11T07:07:45.379Z,987.46
2023-03-11T07:08:45.428Z,987.48
2023-03-11T07:09:45.410Z,987.51
2023-03-11T07:10:45.379Z,987.51
2023-03-11T07:11:45.357Z,987.52
2023-03-11T07:12:45.397Z,987.53
2023-03-11T07:13:45.338Z,987.54
2023-03-11T07:14:45.370Z,987.55
2023-03-11T07:15:45.331Z,987.56
2023-03-11T07:16:45.427Z,987.55
2023-03-11T07:17:45.379Z,987.55
2023-03-11T07:18:45.377Z,987.58
2023-03-11T07:19:45.322Z,987.59
2023-03-11T07:20:45.288Z,987.60
2023-03-11T07:21:45.292Z,987.62
2023-03-11T07:22:45.298Z,987.63
2023-03-11T07:23:45.279Z,987.66
2023-03-11T07:24:45.313Z,987.68
2023-03-11T07:25:45.266Z,987.67
2023-03-11T07:26:45.268Z,987.68
2023-03-11T07:27:45.265Z,987.70
2023-03-11T07:28:45.250Z,987.71
2023-03-11T07:29:45.260Z,987.74
2023-03-11T07:30:45.265Z,987.73
2023-03-11T07:31:45.277Z,987.76
2023-03-11T07:32:45.266Z,987.78
2023-03-11T07:33:45.217Z,987.81
2023-03-11T07:34:45.223Z,987.85
2023-03-11T07:35:45.182Z,987.88
2023-03-11T07:36:45.244Z,987.92
2023-03-11T07:37:45.197Z,987.94
2023-03-11T07:38:45.162Z,987.97
2023-03-11T07:39:45.164Z,988.01
2023-03-11T07:40:45.160Z,988.04
2023-03-11T07:41:45.156Z,988.08
2023-03-11T07:42:45.242Z,988.10
2023-03-11T07:43:45.121Z,988.14
2023-03-11T07:44:45.122Z,988.15
2023-03-11T07:45:45.149Z,988.18
2023-03-11T07:46:45.100Z,988.18
2023-03-11T07:47:45.111Z,988.16
2023-03-11T07:48:45.136Z,988.20
2023-03-11T07:49:45.120Z,988.22
2023-03-11T07:50:45.086Z,988.07
2023-03-11T07:51:45.077Z,988.17
2023-03-11T07:52:45.096Z,988.19
2023-03-11T07:53:45.065Z,988.23
2023-03-11T07:54:45.122Z,988.24
2023-03-11T07:55:45.056Z,988.28
2023-03-11T07:56:45.037Z,988.31
2023-03-11T07:57:45.026Z,988.33
2023-03-11T07:58:45.881Z,988.35
2023-03-11T07:59:45.030Z,988.35
2023-03-11T08:00:45.043Z,988.39
2023-03-11T08:01:45.017Z,988.39
2023-03-11T08:02:45.035Z,988.40
2023-03-11T08:03:45.057Z,988.41
2023-03-11T08:04:44.989Z,988.38
2023-03-11T08:05:44.971Z,988.42
2023-03-11T08:06:45.039Z,988.45
2023-03-11T08:07:44.962Z,988.48
2023-03-11T08:08:44.955Z,988.51
2023-03-11T08:09:44.956Z,988.54
2023-03-11T08:10:44.937Z,988.58
2023-03-11T08:11:44.926Z,988.61
2023-03-11T08:12:45.183Z,988.65
2023-03-11T08:13:44.941Z,988.67
2023-03-11T08:14:44.902Z,988.68
2023-03-11T08:15:44.948Z,988.74
2023-03-11T08:16:44.892Z,988.76
2023-03-11T08:17:44.903Z,988.78
2023-03-11T08:18:44.915Z,988.77
2023-03-11T08:19:44.877Z,988.80
2023-03-11T08:20:44.866Z,988.82
2023-03-11T08:21:44.870Z,988.85
2023-03-11T08:22:57.278Z,988.83
2023-03-11T08:23:45.894Z,988.86
2023-03-11T08:24:44.838Z,988.86
2023-03-11T08:25:44.835Z,988.87
2023-03-11T08:26:44.824Z,988.88
2023-03-11T08:27:44.842Z,988.88
2023-03-11T08:28:44.800Z,988.86
2023-03-11T08:29:44.845Z,988.83
2023-03-11T08:30:44.801Z,988.83
2023-03-11T08:31:44.786Z,988.84
2023-03-11T08:32:44.793Z,988.85
2023-03-11T08:33:44.767Z,988.86
2023-03-11T08:34:44.767Z,988.87
2023-03-11T08:35:44.834Z,988.90
2023-03-11T08:36:44.809Z,988.91
2023-03-11T08:37:44.743Z,988.93
2023-03-11T08:38:44.778Z,988.94
2023-03-11T08:39:44.757Z,988.95
2023-03-11T08:40:44.723Z,988.93
2023-03-11T08:41:44.772Z,988.96
2023-03-11T08:42:44.724Z,988.95
2023-03-11T08:43:44.755Z,988.97
2023-03-11T08:44:44.724Z,989.00
2023-03-11T08:45:44.720Z,989.02
2023-03-11T08:46:44.753Z,989.05
2023-03-11T08:47:44.712Z,989.10
2023-03-11T08:48:44.674Z,989.15
2023-03-11T08:49:44.683Z,989.19
2023-03-11T08:50:54.016Z,989.19
2023-03-11T08:51:45.728Z,989.22
2023-03-11T08:52:44.668Z,989.18
2023-03-11T08:53:44.733Z,989.20
2023-03-11T08:54:44.628Z,989.20
2023-03-11T08:55:44.621Z,989.20
2023-03-11T08:56:44.636Z,989.21
2023-03-11T08:57:44.629Z,989.19
2023-03-11T08:58:44.635Z,989.18
2023-03-11T08:59:44.675Z,989.19
2023-03-11T09:00:44.605Z,989.17
2023-03-11T09:01:44.595Z,989.14
2023-03-11T09:02:44.625Z,989.11
2023-03-11T09:03:44.577Z,989.12
2023-03-11T09:04:44.577Z,989.13
2023-03-11T09:05:44.591Z,989.13
2023-03-11T09:06:44.576Z,989.12
2023-03-11T09:07:44.524Z,989.11
2023-03-11T09:08:44.558Z,989.13
2023-03-11T09:09:53.013Z,989.15
2023-03-11T09:10:44.573Z,989.18
2023-03-11T09:11:44.547Z,989.22
2023-03-11T09:12:44.508Z,989.23
2023-03-11T09:13:44.545Z,989.25
2023-03-11T09:14:44.486Z,989.26
2023-03-11T09:15:44.488Z,989.27
2023-03-11T09:16:44.488Z,989.30
2023-03-11T09:17:44.909Z,989.28
2023-03-11T09:18:44.495Z,989.28
2023-03-11T09:19:44.476Z,989.27
2023-03-11T09:20:47.338Z,989.28
2023-03-11T09:21:44.436Z,989.26
2023-03-11T09:22:44.436Z,989.24
2023-03-11T09:23:44.752Z,989.23
2023-03-11T09:24:44.436Z,989.22
2023-03-11T09:25:44.435Z,989.22
2023-03-11T09:26:44.390Z,989.21
2023-03-11T09:27:44.408Z,989.22
2023-03-11T09:28:44.396Z,989.23
2023-03-11T09:29:44.470Z,989.26
2023-03-11T09:30:44.387Z,989.26
2023-03-11T09:31:44.410Z,989.29
2023-03-11T09:32:44.430Z,989.32
2023-03-11T09:33:44.367Z,989.37
2023-03-11T09:34:44.352Z,989.40
2023-03-11T09:35:44.400Z,989.41
2023-03-11T09:36:44.329Z,989.42
2023-03-11T09:37:44.328Z,989.42
2023-03-11T09:38:44.345Z,989.44
2023-03-11T09:39:44.361Z,989.45
2023-03-11T09:40:46.849Z,989.47
2023-03-11T09:41:57.096Z,989.47
2023-03-11T09:42:45.319Z,989.49
2023-03-11T09:43:44.275Z,989.51
2023-03-11T09:44:44.300Z,989.50
2023-03-11T09:45:44.264Z,989.49
2023-03-11T09:46:44.311Z,989.49
2023-03-11T09:47:44.319Z,989.48
2023-03-11T09:48:44.252Z,989.46
2023-03-11T09:49:44.258Z,989.47
2023-03-11T09:50:44.238Z,989.46
2023-03-11T09:51:44.252Z,989.47
2023-03-11T09:52:44.222Z,989.46
2023-03-11T09:53:44.263Z,989.47
2023-03-11T09:54:44.245Z,989.47
2023-03-11T09:55:44.240Z,989.51
2023-03-11T09:56:48.814Z,989.49
2023-03-11T09:57:45.179Z,989.50
2023-03-11T09:58:44.183Z,989.51
2023-03-11T09:59:44.224Z,989.49
2023-03-11T10:00:44.206Z,989.52
2023-03-11T10:01:44.197Z,989.57
2023-03-11T10:02:44.282Z,989.60
2023-03-11T10:03:44.153Z,989.61
2023-03-11T10:04:44.149Z,989.63
2023-03-11T10:05:44.189Z,989.62
2023-03-11T10:06:44.168Z,989.60
2023-03-11T10:07:44.122Z,989.58
2023-03-11T10:08:44.126Z,989.55
2023-03-11T10:09:44.086Z,989.57
2023-03-11T10:10:44.113Z,989.56
2023-03-11T10:11:44.115Z,989.56
2023-03-11T10:12:44.072Z,989.58
2023-03-11T10:13:44.099Z,989.59
2023-03-11T10:14:44.059Z,989.55
2023-03-11T10:15:44.072Z,989.55
2023-03-11T10:16:44.165Z,989.56
2023-03-11T10:17:44.112Z,989.57
2023-03-11T10:18:44.064Z,989.56
2023-03-11T10:19:44.039Z,989.56
2023-03-11T10:20:44.048Z,989.55
2023-03-11T10:21:44.057Z,989.56
2023-03-11T10:22:44.015Z,989.55
2023-03-11T10:23:44.268Z,989.55
2023-03-11T10:24:43.983Z,989.53
2023-03-11T10:25:43.983Z,989.50
2023-03-11T10:26:43.967Z,989.48
2023-03-11T10:27:43.964Z,989.49
2023-03-11T10:28:43.955Z,989.48
2023-03-11T10:29:44.023Z,989.48
2023-03-11T10:30:43.962Z,989.49
2023-03-11T10:31:43.977Z,989.49
2023-03-11T10:32:44.017Z,989.48
2023-03-11T10:33:46.506Z,989.45
2023-03-11T10:34:43.928Z,989.45
2023-03-11T10:35:43.984Z,989.47
2023-03-11T10:36:43.897Z,989.47
2023-03-11T10:37:49.603Z,989.47
2023-03-11T10:38:44.886Z,989.47
2023-03-11T10:39:43.903Z,989.47
2023-03-11T10:40:43.875Z,989.47
2023-03-11T10:41:43.927Z,989.49
2023-03-11T10:42:43.873Z,989.50
2023-03-11T10:43:43.892Z,989.50
2023-03-11T10:44:43.839Z,989.49
2023-03-11T10:45:43.844Z,989.49
2023-03-11T10:46:43.839Z,989.49
2023-03-11T10:47:43.864Z,989.49
2023-03-11T10:48:43.802Z,989.51
2023-03-11T10:49:43.825Z,989.50
2023-03-11T10:50:43.799Z,989.49
2023-03-11T10:51:43.817Z,989.50
2023-03-11T10:52:43.785Z,989.51
2023-03-11T10:53:43.857Z,989.53
2023-03-11T10:54:43.761Z,989.56
2023-03-11T10:55:43.793Z,989.59
2023-03-11T10:56:43.751Z,989.61
2023-03-11T10:57:43.758Z,989.60
2023-03-11T10:58:43.734Z,989.57
2023-03-11T10:59:43.787Z,989.56
2023-03-11T11:00:43.740Z,989.55
2023-03-11T11:01:43.720Z,989.57
2023-03-11T11:02:43.918Z,989.57
2023-03-11T11:03:43.740Z,989.60
2023-03-11T11:04:43.720Z,989.59
2023-03-11T11:05:43.719Z,989.62
2023-03-11T11:06:43.693Z,989.60
2023-03-11T11:07:43.677Z,989.62
2023-03-11T11:08:43.685Z,989.64
2023-03-11T11:09:43.683Z,989.63
2023-03-11T11:10:43.689Z,989.68
2023-03-11T11:11:43.728Z,989.70
2023-03-11T11:12:43.643Z,989.70
2023-03-11T11:13:43.646Z,989.70
2023-03-11T11:14:43.644Z,989.70
2023-03-11T11:15:43.628Z,989.71
2023-03-11T11:16:43.636Z,989.72
2023-03-11T11:17:43.689Z,989.72
2023-03-11T11:18:43.612Z,989.73
2023-03-11T11:19:43.604Z,989.75
2023-03-11T11:20:43.579Z,989.77
2023-03-11T11:21:43.586Z,989.78
2023-03-11T11:22:43.630Z,989.81
2023-03-11T11:23:43.702Z,989.82
2023-03-11T11:24:43.595Z,989.85
2023-03-11T11:25:43.566Z,989.85
2023-03-11T11:26:43.574Z,989.85
2023-03-11T11:27:43.558Z,989.84
2023-03-11T11:28:43.529Z,989.83
2023-03-11T11:29:44.158Z,989.86
2023-03-11T11:30:43.564Z,989.86
2023-03-11T11:31:43.511Z,989.85
2023-03-11T11:32:43.589Z,989.84
2023-03-11T11:33:43.513Z,989.81
2023-03-11T11:34:43.506Z,989.82
2023-03-11T11:35:43.598Z,989.82
2023-03-11T11:36:43.497Z,989.78
2023-03-11T11:37:43.459Z,989.76
2023-03-11T11:38:43.483Z,989.72
2023-03-11T11:39:43.457Z,989.70
2023-03-11T11:40:43.454Z,989.69
2023-03-11T11:41:43.499Z,989.69
2023-03-11T11:42:43.450Z,989.69
2023-03-11T11:43:43.422Z,989.67
2023-03-11T11:44:43.409Z,989.65
2023-03-11T11:45:43.461Z,989.65
2023-03-11T11:46:43.421Z,989.60
2023-03-11T11:47:43.439Z,989.60
2023-03-11T11:48:43.400Z,989.62
2023-03-11T11:49:43.397Z,989.64
2023-03-11T11:50:43.386Z,989.68
2023-03-11T11:51:43.407Z,989.70
2023-03-11T11:52:45.114Z,989.72
2023-03-11T11:53:43.438Z,989.71
2023-03-11T11:54:43.344Z,989.75
2023-03-11T11:55:43.388Z,989.77
2023-03-11T11:56:43.405Z,989.76
2023-03-11T11:57:43.341Z,989.77
2023-03-11T11:58:43.405Z,989.74
2023-03-11T11:59:43.346Z,989.76
2023-03-11T12:00:43.313Z,989.76
2023-03-11T12:01:43.322Z,989.76
2023-03-11T12:02:43.286Z,989.76
2023-03-11T12:03:43.340Z,989.77
2023-03-11T12:04:43.359Z,989.78
2023-03-11T12:05:43.333Z,989.80
2023-03-11T12:06:43.270Z,989.80
2023-03-11T12:07:43.255Z,989.78
2023-03-11T12:08:43.232Z,989.76
2023-03-11T12:09:43.246Z,989.74
2023-03-11T12:10:43.237Z,989.73
2023-03-11T12:11:43.297Z,989.71
2023-03-11T12:12:43.253Z,989.69
2023-03-11T12:13:43.206Z,989.67
2023-03-11T12:14:43.198Z,989.67
2023-03-11T12:15:43.227Z,989.66
2023-03-11T12:16:43.197Z,989.65
2023-03-11T12:17:43.207Z,989.64
2023-03-11T12:18:45.250Z,989.64
2023-03-11T12:19:44.437Z,989.63
2023-03-11T12:20:43.169Z,989.62
2023-03-11T12:21:43.147Z,989.59
2023-03-11T12:22:43.157Z,989.55
2023-03-11T12:23:43.180Z,989.50
2023-03-11T12:24:43.117Z,989.47
2023-03-11T12:25:43.228Z,989.47
2023-03-11T12:26:43.111Z,989.49
2023-03-11T12:27:43.090Z,989.49
2023-03-11T12:28:43.104Z,989.49